createdAt,value
2022-08-25T00:00:02.471Z,1000.18
2022-08-25T00:01:02.452Z,1000.24
2022-08-25T00:02:03.152Z,1000.22
2022-08-25T00:03:02.487Z,1000.22
2022-08-25T00:04:02.431Z,1000.23
2022-08-25T00:05:02.449Z,1000.25
2022-08-25T00:06:02.402Z,1000.20
2022-08-25T00:07:03.379Z,1000.24
2022-08-25T00:08:02.419Z,1000.27
2022-08-25T00:09:02.374Z,1000.16
2022-08-25T00:10:02.361Z,1000.26
2022-08-25T00:11:03.624Z,1000.21
2022-08-25T00:12:02.343Z,1000.26
2022-08-25T00:13:02.344Z,1000.17
2022-08-25T00:14:02.331Z,1000.19
2022-08-25T00:15:02.308Z,1000.21
2022-08-25T00:16:02.325Z,1000.20
2022-08-25T00:17:02.285Z,1000.20
2022-08-25T00:18:02.319Z,1000.18
2022-08-25T00:19:02.275Z,1000.17
2022-08-25T00:20:02.251Z,1000.22
2022-08-25T00:21:02.236Z,1000.23
2022-08-25T00:22:02.223Z,1000.21
2022-08-25T00:23:02.214Z,1000.20
2022-08-25T00:24:02.205Z,1000.18
2022-08-25T00:25:02.205Z,1000.21
2022-08-25T00:26:02.174Z,1000.18
2022-08-25T00:27:02.167Z,1000.16
2022-08-25T00:28:05.274Z,1000.17
2022-08-25T00:29:03.141Z,1000.17
2022-08-25T00:30:02.154Z,1000.18
2022-08-25T00:31:02.195Z,1000.19
2022-08-25T00:32:02.105Z,1000.18
2022-08-25T00:33:02.105Z,1000.16
2022-08-25T00:34:02.085Z,1000.19
2022-08-25T00:35:02.080Z,1000.21
2022-08-25T00:36:02.095Z,1000.14
2022-08-25T00:37:02.062Z,1000.23
2022-08-25T00:38:02.152Z,1000.18
2022-08-25T00:39:02.036Z,1000.16
2022-08-25T00:40:02.051Z,1000.19
2022-08-25T00:41:02.005Z,1000.16
2022-08-25T00:42:02.026Z,1000.20
2022-08-25T00:43:01.984Z,1000.19
2022-08-25T00:44:01.975Z,1000.17
2022-08-25T00:45:02.361Z,1000.15
2022-08-25T00:46:01.990Z,1000.16
2022-08-25T00:47:01.938Z,1000.17
2022-08-25T00:48:02.049Z,1000.23
2022-08-25T00:49:01.907Z,1000.18
2022-08-25T00:50:01.907Z,1000.20
2022-08-25T00:51:01.897Z,1000.23
2022-08-25T00:52:01.885Z,1000.18
2022-08-25T00:53:01.895Z,1000.20
2022-08-25T00:54:01.857Z,1000.21
2022-08-25T00:55:05.895Z,1000.23
2022-08-25T00:56:02.837Z,1000.18
2022-08-25T00:57:01.817Z,1000.16
2022-08-25T00:58:01.860Z,1000.15
2022-08-25T00:59:01.847Z,1000.19
2022-08-25T01:00:01.802Z,1000.17
2022-08-25T01:01:01.797Z,1000.20
2022-08-25T01:02:01.768Z,1000.22
2022-08-25T01:03:01.887Z,1000.16
2022-08-25T01:04:01.759Z,1000.20
2022-08-25T01:05:01.758Z,1000.21
2022-08-25T01:06:01.718Z,1000.17
2022-08-25T01:07:01.708Z,1000.15
2022-08-25T01:08:01.739Z,1000.20
2022-08-25T01:09:01.688Z,1000.18
2022-08-25T01:10:01.678Z,1000.18
2022-08-25T01:11:01.688Z,1000.17
2022-08-25T01:12:01.658Z,1000.19
2022-08-25T01:13:01.639Z,1000.17
2022-08-25T01:14:01.638Z,1000.16
2022-08-25T01:15:01.618Z,1000.15
2022-08-25T01:16:01.707Z,1000.14
2022-08-25T01:17:01.596Z,1000.14
2022-08-25T01:18:01.609Z,1000.10
2022-08-25T01:19:01.581Z,1000.13
2022-08-25T01:20:01.561Z,1000.14
2022-08-25T01:21:01.548Z,1000.12
2022-08-25T01:22:01.569Z,1000.11
2022-08-25T01:23:01.520Z,1000.17
2022-08-25T01:24:01.521Z,1000.17
2022-08-25T01:25:01.509Z,1000.16
2022-08-25T01:26:01.499Z,1000.20
2022-08-25T01:27:01.492Z,1000.16
2022-08-25T01:28:01.532Z,1000.19
2022-08-25T01:29:01.458Z,1000.16
2022-08-25T01:30:01.450Z,1000.15
2022-08-25T01:31:01.459Z,1000.16
2022-08-25T01:32:01.430Z,1000.18
2022-08-25T01:33:01.410Z,1000.13
2022-08-25T01:34:01.432Z,1000.14
2022-08-25T01:35:01.401Z,1000.13
2022-08-25T01:36:01.380Z,1000.15
2022-08-25T01:37:01.365Z,1000.16
2022-08-25T01:38:01.390Z,1000.21
2022-08-25T01:39:01.346Z,1000.19
2022-08-25T01:40:01.408Z,1000.17
2022-08-25T01:41:01.321Z,1000.26
2022-08-25T01:42:01.312Z,1000.22
2022-08-25T01:43:01.299Z,1000.22
2022-08-25T01:44:01.291Z,1000.29
2022-08-25T01:45:01.285Z,1000.28
2022-08-25T01:46:01.320Z,1000.29
2022-08-25T01:47:01.253Z,1000.25
2022-08-25T01:48:01.259Z,1000.26
2022-08-25T01:49:04.999Z,1000.31
2022-08-25T01:50:02.221Z,1000.28
2022-08-25T01:51:01.203Z,1000.27
2022-08-25T01:52:01.212Z,1000.28
2022-08-25T01:53:01.182Z,1000.26
2022-08-25T01:54:01.180Z,1000.31
2022-08-25T01:55:01.172Z,1000.27
2022-08-25T01:56:01.152Z,1000.26
2022-08-25T01:57:01.163Z,1000.27
2022-08-25T01:58:01.186Z,1000.28
2022-08-25T01:59:01.216Z,1000.24
2022-08-25T02:00:01.112Z,1000.26
2022-08-25T02:01:01.149Z,1000.21
2022-08-25T02:02:01.115Z,1000.25
2022-08-25T02:03:01.275Z,1000.22
2022-08-25T02:04:01.064Z,1000.19
2022-08-25T02:05:01.086Z,1000.17
2022-08-25T02:06:01.043Z,1000.22
2022-08-25T02:07:01.024Z,1000.22
2022-08-25T02:08:01.022Z,1000.27
2022-08-25T02:09:01.042Z,1000.25
2022-08-25T02:10:03.339Z,1000.24
2022-08-25T02:11:00.983Z,1000.23
2022-08-25T02:12:01.106Z,1000.21
2022-08-25T02:13:01.156Z,1000.19
2022-08-25T02:14:01.029Z,1000.26
2022-08-25T02:15:00.965Z,1000.20
2022-08-25T02:16:00.929Z,1000.22
2022-08-25T02:17:00.969Z,1000.22
2022-08-25T02:18:00.936Z,1000.28
2022-08-25T02:19:00.927Z,1000.22
2022-08-25T02:20:00.909Z,1000.25
2022-08-25T02:21:00.865Z,1000.16
2022-08-25T02:22:00.854Z,1000.16
2022-08-25T02:23:00.845Z,1000.10
2022-08-25T02:24:00.834Z,1000.19
2022-08-25T02:25:00.823Z,1000.15
2022-08-25T02:26:00.845Z,1000.13
2022-08-25T02:27:00.795Z,1000.10
2022-08-25T02:28:00.915Z,1000.13
2022-08-25T02:29:00.766Z,1000.13
2022-08-25T02:30:00.825Z,1000.21
2022-08-25T02:31:01.587Z,1000.17
2022-08-25T02:32:00.786Z,1000.11
2022-08-25T02:33:00.734Z,1000.19
2022-08-25T02:34:00.739Z,1000.16
2022-08-25T02:35:00.756Z,1000.16
2022-08-25T02:36:00.697Z,1000.13
2022-08-25T02:37:00.685Z,1000.18
2022-08-25T02:38:00.743Z,1000.14
2022-08-25T02:39:00.726Z,1000.18
2022-08-25T02:40:00.688Z,1000.12
2022-08-25T02:41:00.636Z,1000.17
2022-08-25T02:42:00.628Z,1000.16
2022-08-25T02:43:00.636Z,1000.16
2022-08-25T02:44:00.617Z,1000.16
2022-08-25T02:45:00.847Z,1000.16
2022-08-25T02:46:00.776Z,1000.17
2022-08-25T02:47:00.588Z,1000.20
2022-08-25T02:48:00.622Z,1000.18
2022-08-25T02:49:00.708Z,1000.19
2022-08-25T02:50:00.538Z,1000.20
2022-08-25T02:51:00.568Z,1000.17
2022-08-25T02:52:00.561Z,1000.17
2022-08-25T02:53:00.718Z,1000.25
2022-08-25T02:54:00.509Z,1000.26
2022-08-25T02:55:00.688Z,1000.24
2022-08-25T02:56:00.476Z,1000.18
2022-08-25T02:57:00.458Z,1000.19
2022-08-25T02:58:00.502Z,1000.17
2022-08-25T02:59:00.453Z,1000.10
2022-08-25T03:00:00.433Z,1000.13
2022-08-25T03:01:00.484Z,1000.13
2022-08-25T03:02:00.423Z,1000.14
2022-08-25T03:03:00.475Z,1000.12
2022-08-25T03:04:00.417Z,1000.14
2022-08-25T03:05:00.449Z,1000.14
2022-08-25T03:06:00.420Z,1000.10
2022-08-25T03:07:00.396Z,1000.15
2022-08-25T03:08:00.359Z,1000.16
2022-08-25T03:09:00.331Z,1000.10
2022-08-25T03:10:00.409Z,1000.12
2022-08-25T03:11:00.497Z,1000.05
2022-08-25T03:12:00.304Z,1000.06
2022-08-25T03:13:00.353Z,1000.09
2022-08-25T03:14:00.388Z,1000.07
2022-08-25T03:15:00.334Z,1000.07
2022-08-25T03:16:00.250Z,1000.05
2022-08-25T03:17:00.281Z,1000.05
2022-08-25T03:18:00.384Z,1000.04
2022-08-25T03:19:00.324Z,1000.02
2022-08-25T03:20:00.275Z,1000.01
2022-08-25T03:21:00.199Z,1000.00
2022-08-25T03:22:00.200Z,999.98
2022-08-25T03:23:00.182Z,999.99
2022-08-25T03:24:00.171Z,999.94
2022-08-25T03:25:00.141Z,999.97
2022-08-25T03:26:00.748Z,999.97
2022-08-25T03:27:00.122Z,999.91
2022-08-25T03:28:00.135Z,999.91
2022-08-25T03:29:00.092Z,999.91
2022-08-25T03:30:00.154Z,999.97
2022-08-25T03:31:00.133Z,999.91
2022-08-25T03:32:00.321Z,999.90
2022-08-25T03:33:00.057Z,999.94
2022-08-25T03:34:00.040Z,999.91
2022-08-25T03:35:00.027Z,999.93
2022-08-25T03:36:00.043Z,999.86
2022-08-25T03:37:00.006Z,999.86
2022-08-25T03:37:59.993Z,999.90
2022-08-25T03:39:00.483Z,999.85
2022-08-25T03:40:00.038Z,999.89
2022-08-25T03:40:59.958Z,999.85
2022-08-25T03:41:59.964Z,999.81
2022-08-25T03:42:59.939Z,999.81
2022-08-25T03:43:59.953Z,999.89
2022-08-25T03:44:59.926Z,999.83
2022-08-25T03:45:59.955Z,999.88
2022-08-25T03:46:59.936Z,999.84
2022-08-25T03:48:00.174Z,999.82
2022-08-25T03:48:59.883Z,999.87
2022-08-25T03:49:59.903Z,999.85
2022-08-25T03:50:59.904Z,999.81
2022-08-25T03:51:59.894Z,999.78
2022-08-25T03:52:59.843Z,999.80
2022-08-25T03:53:59.829Z,999.76
2022-08-25T03:54:59.808Z,999.78
2022-08-25T03:55:59.811Z,999.79
2022-08-25T03:56:59.783Z,999.77
2022-08-25T03:57:59.913Z,999.77
2022-08-25T03:58:59.757Z,999.71
2022-08-25T03:59:59.746Z,999.74
2022-08-25T04:00:59.793Z,999.72
2022-08-25T04:01:59.754Z,999.76
2022-08-25T04:02:59.714Z,999.74
2022-08-25T04:03:59.712Z,999.80
2022-08-25T04:04:59.688Z,999.80
2022-08-25T04:05:59.676Z,999.77
2022-08-25T04:06:59.665Z,999.82
2022-08-25T04:07:59.688Z,999.88
2022-08-25T04:08:59.724Z,999.78
2022-08-25T04:09:59.628Z,999.88
2022-08-25T04:10:59.623Z,999.86
2022-08-25T04:11:59.605Z,999.90
2022-08-25T04:12:59.596Z,999.88
2022-08-25T04:13:59.577Z,999.85
2022-08-25T04:14:59.588Z,999.88
2022-08-25T04:15:59.562Z,999.87
2022-08-25T04:16:59.597Z,999.84
2022-08-25T04:17:59.537Z,999.81
2022-08-25T04:18:59.539Z,999.81
2022-08-25T04:19:59.538Z,999.83
2022-08-25T04:20:59.505Z,999.78
2022-08-25T04:21:59.494Z,999.75
2022-08-25T04:22:59.487Z,999.76
2022-08-25T04:23:59.467Z,999.72
2022-08-25T04:24:59.477Z,999.75
2022-08-25T04:25:59.501Z,999.73
2022-08-25T04:26:59.442Z,999.73
2022-08-25T04:27:59.542Z,999.72
2022-08-25T04:28:59.428Z,999.74
2022-08-25T04:29:59.406Z,999.74
2022-08-25T04:30:59.402Z,999.79
2022-08-25T04:31:59.431Z,999.72
2022-08-25T04:32:59.367Z,999.76
2022-08-25T04:33:59.365Z,999.80
2022-08-25T04:34:59.347Z,999.82
2022-08-25T04:35:59.338Z,999.79
2022-08-25T04:36:59.343Z,999.81
2022-08-25T04:38:06.450Z,999.80
2022-08-25T04:38:59.302Z,999.77
2022-08-25T04:39:59.326Z,999.79
2022-08-25T04:41:01.903Z,999.86
2022-08-25T04:41:59.632Z,999.81
2022-08-25T04:42:59.261Z,999.81
2022-08-25T04:43:59.244Z,999.83
2022-08-25T04:44:59.236Z,999.81
2022-08-25T04:45:59.289Z,999.82
2022-08-25T04:46:59.213Z,999.85
2022-08-25T04:47:59.213Z,999.83
2022-08-25T04:48:59.183Z,999.78
2022-08-25T04:49:59.173Z,999.77
2022-08-25T04:50:59.164Z,999.75
2022-08-25T04:51:59.154Z,999.76
2022-08-25T04:52:59.163Z,999.83
2022-08-25T04:53:59.124Z,999.83
2022-08-25T04:54:59.115Z,999.85
2022-08-25T04:56:03.226Z,999.86
2022-08-25T04:56:59.094Z,999.83
2022-08-25T04:57:59.090Z,999.83
2022-08-25T04:58:59.092Z,999.88
2022-08-25T04:59:59.055Z,999.91
2022-08-25T05:00:59.068Z,999.91
2022-08-25T05:01:59.035Z,999.89
2022-08-25T05:02:59.034Z,999.82
2022-08-25T05:03:59.058Z,999.85
2022-08-25T05:04:59.005Z,999.96
2022-08-25T05:05:58.985Z,999.93
2022-08-25T05:06:58.986Z,999.94
2022-08-25T05:07:59.050Z,999.94
2022-08-25T05:08:58.956Z,999.95
2022-08-25T05:09:58.956Z,999.93
2022-08-25T05:10:58.935Z,999.93
2022-08-25T05:11:58.919Z,999.94
2022-08-25T05:12:58.915Z,999.95
2022-08-25T05:13:58.903Z,999.98
2022-08-25T05:14:58.913Z,999.93
2022-08-25T05:16:00.233Z,999.92
2022-08-25T05:16:58.869Z,999.93
2022-08-25T05:17:58.857Z,999.99
2022-08-25T05:18:58.846Z,999.96
2022-08-25T05:19:58.834Z,999.94
2022-08-25T05:20:58.836Z,999.91
2022-08-25T05:21:58.808Z,999.89
2022-08-25T05:22:58.810Z,999.88
2022-08-25T05:23:58.787Z,999.84
2022-08-25T05:24:58.777Z,999.79
2022-08-25T05:25:58.785Z,999.83
2022-08-25T05:26:58.757Z,999.77
2022-08-25T05:27:58.838Z,999.78
2022-08-25T05:28:58.737Z,999.79
2022-08-25T05:29:58.719Z,999.79
2022-08-25T05:30:58.715Z,999.73
2022-08-25T05:31:58.753Z,999.75
2022-08-25T05:32:58.700Z,999.75
2022-08-25T05:33:58.678Z,999.76
2022-08-25T05:34:58.669Z,999.69
2022-08-25T05:35:58.647Z,999.71
2022-08-25T05:36:58.677Z,999.72
2022-08-25T05:37:58.628Z,999.71
2022-08-25T05:38:58.618Z,999.75
2022-08-25T05:39:58.618Z,999.74
2022-08-25T05:40:58.609Z,999.74
2022-08-25T05:41:58.589Z,999.74
2022-08-25T05:42:58.600Z,999.77
2022-08-25T05:43:58.559Z,999.78
2022-08-25T05:44:58.550Z,999.70
2022-08-25T05:45:58.651Z,999.74
2022-08-25T05:46:58.528Z,999.71
2022-08-25T05:47:58.511Z,999.72
2022-08-25T05:48:58.522Z,999.67
2022-08-25T05:49:58.490Z,999.70
2022-08-25T05:50:58.480Z,999.71
2022-08-25T05:51:58.469Z,999.69
2022-08-25T05:52:58.462Z,999.66
2022-08-25T05:53:58.447Z,999.66
2022-08-25T05:54:58.460Z,999.70
2022-08-25T05:55:58.420Z,999.71
2022-08-25T05:56:58.421Z,999.70
2022-08-25T05:57:58.400Z,999.62
2022-08-25T05:58:58.392Z,999.66
2022-08-25T05:59:58.379Z,999.68
2022-08-25T06:00:58.442Z,999.67
2022-08-25T06:01:58.359Z,999.74
2022-08-25T06:02:58.350Z,999.63
2022-08-25T06:03:58.379Z,999.63
2022-08-25T06:04:58.324Z,999.63
2022-08-25T06:05:58.332Z,999.66
2022-08-25T06:06:58.301Z,999.58
2022-08-25T06:07:58.289Z,999.63
2022-08-25T06:08:58.282Z,999.63
2022-08-25T06:09:58.271Z,999.68
2022-08-25T06:10:58.261Z,999.67
2022-08-25T06:11:58.274Z,999.70
2022-08-25T06:12:58.242Z,999.66
2022-08-25T06:13:58.223Z,999.68
2022-08-25T06:14:58.213Z,999.68
2022-08-25T06:15:58.243Z,999.67
2022-08-25T06:16:58.193Z,999.61
2022-08-25T06:18:00.958Z,999.66
2022-08-25T06:18:58.176Z,999.65
2022-08-25T06:19:58.156Z,999.67
2022-08-25T06:20:58.152Z,999.62
2022-08-25T06:21:58.134Z,999.67
2022-08-25T06:22:58.123Z,999.66
2022-08-25T06:23:58.125Z,999.70
2022-08-25T06:24:58.106Z,999.64
2022-08-25T06:25:58.105Z,999.67
2022-08-25T06:26:58.086Z,999.74
2022-08-25T06:27:58.066Z,999.71
2022-08-25T06:28:58.116Z,999.70
2022-08-25T06:29:58.046Z,999.75
2022-08-25T06:30:59.036Z,999.69
2022-08-25T06:31:58.077Z,999.73
2022-08-25T06:32:58.016Z,999.72
2022-08-25T06:33:57.997Z,999.78
2022-08-25T06:34:58.036Z,999.73
2022-08-25T06:35:57.977Z,999.74
2022-08-25T06:36:57.968Z,999.71
2022-08-25T06:37:57.957Z,999.74
2022-08-25T06:38:57.949Z,999.75
2022-08-25T06:39:58.111Z,999.74
2022-08-25T06:40:57.926Z,999.74
2022-08-25T06:41:57.908Z,999.82
2022-08-25T06:42:57.899Z,999.73
2022-08-25T06:44:05.218Z,999.76
2022-08-25T06:44:58.907Z,999.74
2022-08-25T06:45:57.868Z,999.71
2022-08-25T06:46:57.892Z,999.72
2022-08-25T06:47:57.851Z,999.73
2022-08-25T06:48:57.841Z,999.74
2022-08-25T06:49:57.829Z,999.72
2022-08-25T06:50:57.840Z,999.76
2022-08-25T06:51:57.802Z,999.75
2022-08-25T06:52:57.799Z,999.70
2022-08-25T06:53:57.783Z,999.75
2022-08-25T06:54:57.780Z,999.79
2022-08-25T06:55:57.772Z,999.81
2022-08-25T06:56:57.781Z,999.86
2022-08-25T06:57:57.744Z,999.85
2022-08-25T06:58:57.733Z,999.79
2022-08-25T06:59:57.723Z,999.80
2022-08-25T07:00:57.758Z,999.83
2022-08-25T07:01:57.764Z,999.79
2022-08-25T07:02:57.716Z,999.78
2022-08-25T07:03:57.775Z,999.80
2022-08-25T07:04:57.675Z,999.74
2022-08-25T07:05:57.655Z,999.80
2022-08-25T07:06:57.647Z,999.80
2022-08-25T07:07:57.643Z,999.86
2022-08-25T07:08:57.647Z,999.82
2022-08-25T07:09:57.607Z,999.82
2022-08-25T07:10:57.615Z,999.85
2022-08-25T07:11:57.596Z,999.82
2022-08-25T07:12:57.588Z,999.76
2022-08-25T07:13:57.575Z,999.80
2022-08-25T07:15:18.949Z,999.78
2022-08-25T07:15:58.571Z,999.78
2022-08-25T07:16:57.550Z,999.79
2022-08-25T07:17:57.531Z,999.78
2022-08-25T07:18:57.529Z,999.80
2022-08-25T07:19:57.784Z,999.86
2022-08-25T07:20:57.547Z,999.81
2022-08-25T07:21:57.489Z,999.84
2022-08-25T07:22:57.480Z,999.85
2022-08-25T07:23:57.470Z,999.82
2022-08-25T07:24:57.469Z,999.84
2022-08-25T07:25:57.454Z,999.80
2022-08-25T07:26:57.462Z,999.78
2022-08-25T07:27:59.034Z,999.82
2022-08-25T07:28:57.422Z,999.78
2022-08-25T07:29:57.413Z,999.81
2022-08-25T07:30:57.453Z,999.81
2022-08-25T07:31:57.462Z,999.86
2022-08-25T07:32:57.434Z,999.87
2022-08-25T07:33:57.365Z,999.81
2022-08-25T07:34:57.356Z,999.90
2022-08-25T07:35:57.356Z,999.85
2022-08-25T07:36:57.336Z,999.91
2022-08-25T07:37:57.325Z,999.88
2022-08-25T07:38:57.334Z,999.88
2022-08-25T07:39:57.436Z,999.88
2022-08-25T07:40:57.297Z,999.88
2022-08-25T07:41:57.284Z,999.83
2022-08-25T07:42:57.285Z,999.83
2022-08-25T07:43:57.256Z,999.93
2022-08-25T07:44:57.277Z,999.86
2022-08-25T07:45:57.241Z,999.80
2022-08-25T07:46:57.318Z,999.87
2022-08-25T07:47:57.227Z,999.91
2022-08-25T07:48:57.218Z,999.89
2022-08-25T07:49:57.206Z,999.92
2022-08-25T07:50:57.218Z,999.90
2022-08-25T07:52:03.983Z,999.90
2022-08-25T07:52:58.178Z,999.85
2022-08-25T07:53:57.169Z,999.89
2022-08-25T07:54:57.158Z,999.86
2022-08-25T07:55:57.183Z,999.89
2022-08-25T07:56:57.148Z,999.85
2022-08-25T07:57:57.419Z,999.86
2022-08-25T07:58:57.140Z,999.86
2022-08-25T07:59:57.103Z,999.84
2022-08-25T08:00:57.090Z,999.85
2022-08-25T08:01:57.165Z,999.83
2022-08-25T08:02:57.144Z,999.87
2022-08-25T08:04:00.413Z,999.80
2022-08-25T08:04:58.075Z,999.84
2022-08-25T08:05:57.042Z,999.81
2022-08-25T08:06:57.024Z,999.83
2022-08-25T08:07:57.045Z,999.79
2022-08-25T08:08:58.914Z,999.73
2022-08-25T08:10:32.859Z,999.81
2022-08-25T08:11:04.477Z,999.78
2022-08-25T08:11:57.985Z,999.79
2022-08-25T08:12:56.966Z,999.76
2022-08-25T08:13:56.975Z,999.78
2022-08-25T08:14:56.945Z,999.81
2022-08-25T08:15:56.958Z,999.79
2022-08-25T08:16:56.927Z,999.82
2022-08-25T08:17:56.921Z,999.82
2022-08-25T08:18:56.926Z,999.87
2022-08-25T08:19:56.897Z,999.88
2022-08-25T08:20:56.885Z,999.84
2022-08-25T08:21:56.903Z,999.89
2022-08-25T08:22:56.867Z,999.87
2022-08-25T08:23:58.958Z,999.88
2022-08-25T08:24:56.860Z,999.87
2022-08-25T08:25:56.851Z,999.91
2022-08-25T08:26:58.953Z,999.86
2022-08-25T08:27:56.823Z,999.94
2022-08-25T08:28:56.809Z,999.91
2022-08-25T08:29:56.798Z,999.91
2022-08-25T08:30:56.819Z,999.85
2022-08-25T08:31:56.778Z,999.84
2022-08-25T08:33:09.588Z,999.86
2022-08-25T08:33:57.761Z,999.87
2022-08-25T08:34:56.742Z,999.84
2022-08-25T08:35:56.791Z,999.79
2022-08-25T08:36:56.734Z,999.76
2022-08-25T08:37:56.713Z,999.73
2022-08-25T08:38:56.715Z,999.72
2022-08-25T08:39:56.721Z,999.71
2022-08-25T08:40:56.683Z,999.73
2022-08-25T08:42:11.276Z,999.73
2022-08-25T08:42:57.665Z,999.66
2022-08-25T08:43:56.719Z,999.71
2022-08-25T08:44:58.101Z,999.72
2022-08-25T08:45:56.655Z,999.71
2022-08-25T08:46:56.779Z,999.76
2022-08-25T08:47:56.635Z,999.75
2022-08-25T08:48:56.596Z,999.71
2022-08-25T08:49:56.595Z,999.69
2022-08-25T08:50:56.582Z,999.73
2022-08-25T08:51:56.576Z,999.80
2022-08-25T08:52:56.586Z,999.79
2022-08-25T08:53:57.117Z,999.79
2022-08-25T08:54:56.537Z,999.77
2022-08-25T08:55:56.537Z,999.72
2022-08-25T08:56:56.518Z,999.75
2022-08-25T08:57:56.517Z,999.71
2022-08-25T08:58:56.537Z,999.69
2022-08-25T08:59:56.500Z,999.67
2022-08-25T09:00:56.498Z,999.74
2022-08-25T09:01:56.595Z,999.70
2022-08-25T09:02:56.500Z,999.68
2022-08-25T09:03:56.448Z,999.65
2022-08-25T09:04:56.449Z,999.69
2022-08-25T09:05:56.430Z,999.70
2022-08-25T09:06:56.420Z,999.61
2022-08-25T09:07:56.413Z,999.62
2022-08-25T09:08:56.396Z,999.62
2022-08-25T09:09:56.409Z,999.58
2022-08-25T09:10:56.372Z,999.57
2022-08-25T09:11:56.362Z,999.52
2022-08-25T09:12:56.354Z,999.52
2022-08-25T09:13:56.343Z,999.58
2022-08-25T09:14:56.332Z,999.57
2022-08-25T09:15:57.563Z,999.57
2022-08-25T09:16:56.314Z,999.53
2022-08-25T09:17:56.302Z,999.60
2022-08-25T09:18:56.286Z,999.57
2022-08-25T09:19:56.283Z,999.60
2022-08-25T09:20:56.297Z,999.64
2022-08-25T09:21:56.264Z,999.57
2022-08-25T09:22:56.250Z,999.56
2022-08-25T09:23:56.246Z,999.50
2022-08-25T09:24:56.226Z,999.49
2022-08-25T09:25:56.216Z,999.51
2022-08-25T09:26:56.269Z,999.51
2022-08-25T09:27:56.197Z,999.47
2022-08-25T09:28:56.179Z,999.41
2022-08-25T09:29:56.177Z,999.39
2022-08-25T09:30:56.210Z,999.40
2022-08-25T09:31:56.158Z,999.41
2022-08-25T09:32:56.168Z,999.38
2022-08-25T09:33:56.138Z,999.36
2022-08-25T09:34:56.118Z,999.40
2022-08-25T09:35:57.318Z,999.38
2022-08-25T09:36:56.099Z,999.30
2022-08-25T09:37:56.098Z,999.32
2022-08-25T09:38:56.099Z,999.31
2022-08-25T09:39:56.120Z,999.22
2022-08-25T09:40:56.060Z,998.99
2022-08-25T09:41:56.053Z,998.98
2022-08-25T09:42:58.560Z,998.81
2022-08-25T09:43:56.051Z,998.81
2022-08-25T09:44:56.025Z,998.82
2022-08-25T09:45:56.065Z,998.82
2022-08-25T09:46:56.005Z,998.77
2022-08-25T09:47:55.992Z,998.81
2022-08-25T09:48:57.491Z,998.73
2022-08-25T09:49:55.993Z,998.80
2022-08-25T09:50:55.968Z,998.69
2022-08-25T09:51:55.955Z,998.74
2022-08-25T09:52:55.935Z,998.66
2022-08-25T09:53:55.940Z,998.63
2022-08-25T09:54:55.914Z,998.62
2022-08-25T09:56:00.076Z,998.62
2022-08-25T09:56:55.896Z,998.63
2022-08-25T09:57:55.887Z,998.61
2022-08-25T09:58:58.171Z,998.56
2022-08-25T09:59:57.766Z,998.60
2022-08-25T10:00:55.877Z,998.46
2022-08-25T10:01:55.898Z,998.43
2022-08-25T10:02:55.835Z,998.44
2022-08-25T10:03:55.829Z,998.46
2022-08-25T10:04:55.906Z,998.50
2022-08-25T10:05:56.281Z,998.39
2022-08-25T10:06:55.818Z,998.38
2022-08-25T10:07:55.778Z,998.33
2022-08-25T10:08:55.770Z,998.31
2022-08-25T10:09:55.760Z,998.31
2022-08-25T10:10:55.749Z,998.39
2022-08-25T10:11:57.624Z,998.27
2022-08-25T10:12:55.750Z,998.26
2022-08-25T10:13:55.721Z,998.27
2022-08-25T10:14:55.707Z,998.25
2022-08-25T10:15:55.726Z,998.28
2022-08-25T10:16:55.691Z,998.24
2022-08-25T10:17:55.680Z,998.17
2022-08-25T10:18:55.691Z,998.23
2022-08-25T10:19:55.662Z,998.19
2022-08-25T10:20:55.642Z,998.16
2022-08-25T10:21:55.640Z,998.11
2022-08-25T10:22:55.622Z,998.05
2022-08-25T10:23:55.624Z,998.03
2022-08-25T10:24:55.624Z,998.01
2022-08-25T10:25:59.377Z,997.95
2022-08-25T10:26:56.601Z,998.03
2022-08-25T10:27:55.575Z,997.94
2022-08-25T10:28:55.565Z,997.92
2022-08-25T10:29:55.576Z,997.95
2022-08-25T10:30:55.620Z,997.93
2022-08-25T10:31:55.545Z,997.89
2022-08-25T10:32:55.517Z,997.96
2022-08-25T10:33:55.514Z,997.92
2022-08-25T10:34:55.497Z,997.97
2022-08-25T10:35:55.546Z,997.92
2022-08-25T10:36:56.131Z,997.88
2022-08-25T10:37:55.466Z,997.84
2022-08-25T10:39:02.506Z,997.77
2022-08-25T10:39:55.870Z,997.72
2022-08-25T10:40:55.436Z,997.74
2022-08-25T10:41:55.477Z,997.78
2022-08-25T10:42:55.418Z,997.75
2022-08-25T10:43:55.407Z,997.80
2022-08-25T10:44:55.397Z,997.72
2022-08-25T10:45:55.448Z,997.79
2022-08-25T10:46:55.378Z,997.70
2022-08-25T10:47:55.378Z,997.70
2022-08-25T10:48:55.350Z,997.72
2022-08-25T10:49:55.377Z,997.74
2022-08-25T10:50:55.330Z,997.67
2022-08-25T10:51:55.319Z,997.69
2022-08-25T10:52:55.330Z,997.64
2022-08-25T10:53:55.300Z,997.65
2022-08-25T10:54:55.289Z,997.61
2022-08-25T10:55:55.279Z,997.63
2022-08-25T10:56:57.471Z,997.57
2022-08-25T10:57:56.281Z,997.62
2022-08-25T10:58:55.242Z,997.66
2022-08-25T10:59:55.240Z,997.60
2022-08-25T11:00:55.282Z,997.52
2022-08-25T11:01:55.273Z,997.54
2022-08-25T11:02:55.205Z,997.54
2022-08-25T11:03:55.275Z,997.55
2022-08-25T11:04:55.202Z,997.55
2022-08-25T11:05:55.173Z,997.49
2022-08-25T11:06:55.164Z,997.46
2022-08-25T11:07:55.154Z,997.48
2022-08-25T11:08:55.144Z,997.52
2022-08-25T11:09:55.156Z,997.48
2022-08-25T11:10:55.123Z,997.49
2022-08-25T11:11:55.116Z,997.42
2022-08-25T11:12:55.104Z,997.43
2022-08-25T11:13:55.095Z,997.38
2022-08-25T11:14:55.087Z,997.45
2022-08-25T11:16:15.848Z,997.44
2022-08-25T11:16:56.099Z,997.49
2022-08-25T11:17:55.060Z,997.42
2022-08-25T11:18:55.043Z,997.42
2022-08-25T11:19:55.027Z,997.44
2022-08-25T11:20:55.017Z,997.42
2022-08-25T11:21:55.027Z,997.44
2022-08-25T11:22:54.996Z,997.48
2022-08-25T11:23:54.990Z,997.46
2022-08-25T11:24:54.988Z,997.48
2022-08-25T11:25:54.969Z,997.42
2022-08-25T11:26:54.978Z,997.49
2022-08-25T11:27:54.949Z,997.42
2022-08-25T11:28:54.953Z,997.43
2022-08-25T11:29:54.929Z,997.48
2022-08-25T11:30:54.954Z,997.41
2022-08-25T11:31:54.900Z,997.37
2022-08-25T11:32:54.910Z,997.43
2022-08-25T11:33:54.881Z,997.37
2022-08-25T11:34:54.871Z,997.39
2022-08-25T11:35:54.876Z,997.37
2022-08-25T11:36:54.843Z,997.39
2022-08-25T11:37:54.832Z,997.41
2022-08-25T11:38:54.835Z,997.38
2022-08-25T11:39:54.832Z,997.29
2022-08-25T11:40:54.803Z,997.34
2022-08-25T11:41:54.792Z,997.39
2022-08-25T11:42:54.785Z,997.39
2022-08-25T11:43:54.800Z,997.32
2022-08-25T11:44:55.015Z,997.29
2022-08-25T11:45:54.912Z,997.35
2022-08-25T11:46:54.735Z,997.31
2022-08-25T11:47:54.724Z,997.25
2022-08-25T11:48:54.717Z,997.30
2022-08-25T11:49:54.733Z,997.26
2022-08-25T11:50:54.695Z,997.27
2022-08-25T11:51:54.688Z,997.30
2022-08-25T11:52:55.675Z,997.25
2022-08-25T11:53:54.666Z,997.24
2022-08-25T11:54:54.654Z,997.28
2022-08-25T11:55:55.597Z,997.30
2022-08-25T11:56:54.636Z,997.21
2022-08-25T11:57:54.626Z,997.25
2022-08-25T11:58:54.609Z,997.17
2022-08-25T11:59:54.607Z,997.22
2022-08-25T12:00:54.608Z,997.20
2022-08-25T12:01:54.588Z,997.18
2022-08-25T12:02:57.359Z,997.21
2022-08-25T12:03:55.648Z,997.20
2022-08-25T12:04:54.631Z,997.20
2022-08-25T12:05:54.539Z,997.21
2022-08-25T12:06:54.550Z,997.21
2022-08-25T12:07:54.533Z,997.24
2022-08-25T12:08:54.508Z,997.20
2022-08-25T12:09:54.507Z,997.16
2022-08-25T12:10:54.489Z,997.15
2022-08-25T12:11:54.481Z,997.21
2022-08-25T12:12:54.521Z,997.24
2022-08-25T12:13:54.461Z,997.20
2022-08-25T12:14:54.450Z,997.20
2022-08-25T12:15:54.444Z,997.20
2022-08-25T12:16:54.471Z,997.18
2022-08-25T12:17:54.441Z,997.16
2022-08-25T12:18:54.413Z,997.14
2022-08-25T12:19:54.393Z,997.08
2022-08-25T12:20:54.394Z,997.15
2022-08-25T12:21:54.464Z,997.14